Share

Acapulco, Mexico

5:04 PM CDT on April 24, 2014 (GMT -0500)
Gen Juan N Alvarez International (MMAA) Elev 16 ft | 16.76 °N, 99.75 °W | Change Station

Current weather conditions updated 16 minutes ago

Mostly Cloudy
Mostly Cloudy
88 °F
Feels Like 100 °F
N
12
Wind Variable Wind from West
Sunrise 7:17 AM
Sunset 7:56 PM
Moon Waning Crescent

Tomorrow is forecast to be Warmer than today.

Pressure 29.80 in
Visibility 6.0 miles
Clouds Mostly Cloudy 30000 ft
Heat Index 100 °F
Dew Point 77 °F
Humidity 70%
Rainfall 0.00 in
Snow Depth Not available.
UV 3 out of 16
Pollen Not available.
Air Quality Not available.
Flu Activity Not available.
METAR MMAA 242148Z 26010KT 6SM BKN300 31/25 A2980 RMK 8/002 HZY

More Conditions Fewer Conditions

Pressure 29.80 in
Visibility 6.0 miles
Clouds Mostly Cloudy 30000 ft
Heat Index 100 °F
Dew Point 77 °F
Humidity 70%
Rainfall 0.00 in
Snow Depth Not available.
UV 3 out of 16
Pollen Not available.
Air Quality Not available.
Flu Activity Not available.
METAR MMAA 242148Z 26010KT 6SM BKN300 31/25 A2980 RMK 8/002 HZY

More Conditions Fewer Conditions

10-Day Weather Forecast

Almanac

Astronomy

Apr. 24, 2014 Rise Set
Actual Time 7:17 AM CDT 7:56 PM CDT
Civil Twilight 6:55 AM CDT 8:19 PM CDT
Nautical Twilight 6:29 AM CDT 8:45 PM CDT
Astronomical Twilight 6:02 AM CDT 9:11 PM CDT
Moon 3:44 AM CDT 3:54 PM CDT
Length of Visible Light 13h 23m
Length of Day
12h 39m
Tomorrow will be 0m 51s longer.
Waning Crescent, 22% of the Moon is Illuminated
Today
Waning Crescent
Apr 29
New
May 6
First Quarter
May 14
Full
May 21
Last Quarter

Today's Extremes

Country Highs Country Lows

Community

  • Jone Runs Falls
    Jone Runs Falls
  • Sunset at Apalachicola Bay, Florida
    Sunset at Apalachicola Bay, Florida
  • Clouds mov'n in
    Clouds mov'n in
  • Stacked
    Stacked
  • clouds approaching Red Sox Nation
    clouds approaching Red Sox Nation

WunderPhotos

Upload Photos

1,704,727 photos uploaded!

Nearby

Snow Depth

Not available.

Coastal Water Temperatures

Place Temperature
No Stations Reporting

Earthquake Activity

City Distance Mag. Time & Date
No recent earthquake activity has been reported nearby.
Minimum magnitude displayed is 2.5.

Nearby Weather Stations

There are no personal weather stations in this area.

What do you think?

We're not finished. Please let us know what you like, what you don't like, and what you are still missing.